createdAt,value
2022-12-26T00:02:49.277Z,97678.72
2022-12-26T00:07:53.867Z,97672.56
2022-12-26T00:13:37.046Z,97674.63
2022-12-26T00:18:21.531Z,97673.78
2022-12-26T00:23:25.032Z,97665.72
2022-12-26T00:28:28.543Z,97652.56
2022-12-26T00:33:32.235Z,97642.91
2022-12-26T00:38:37.363Z,97651.53
2022-12-26T00:43:41.763Z,97657.41
2022-12-26T00:48:45.716Z,97644.66
2022-12-26T00:53:50.386Z,97651.81
2022-12-26T00:58:53.920Z,97644.59
2022-12-26T01:03:58.623Z,97647.91
2022-12-26T01:09:02.487Z,97653.06
2022-12-26T01:14:14.139Z,97623.16
2022-12-26T01:19:17.811Z,97633.78
2022-12-26T01:24:21.619Z,97628.00
2022-12-26T01:29:25.051Z,97630.47
2022-12-26T01:34:28.787Z,97614.59
2022-12-26T01:39:33.601Z,97608.84
2022-12-26T01:45:18.373Z,97594.88
2022-12-26T01:50:41.429Z,97601.25
2022-12-26T01:55:50.109Z,97606.59
2022-12-26T02:00:53.991Z,97590.56
2022-12-26T02:06:01.108Z,97575.97
2022-12-26T02:11:31.923Z,97562.00
2022-12-26T02:16:39.203Z,97551.53
2022-12-26T02:22:28.727Z,97565.91
2022-12-26T02:27:51.099Z,97562.00
2022-12-26T02:33:19.487Z,97574.94
2022-12-26T02:38:43.738Z,97571.22
2022-12-26T02:44:48.832Z,97555.53
2022-12-26T02:50:17.445Z,97576.03
2022-12-26T02:55:26.749Z,97643.59
2022-12-26T03:00:34.360Z,97676.06
2022-12-26T03:05:44.580Z,97678.41
2022-12-26T03:10:50.428Z,97649.31
2022-12-26T03:15:58.574Z,97618.94
2022-12-26T03:21:04.204Z,97609.47
2022-12-26T03:26:21.700Z,97609.88
2022-12-26T03:31:26.785Z,97621.97
2022-12-26T03:36:30.224Z,97611.69
2022-12-26T03:41:40.748Z,97601.00
2022-12-26T03:47:05.543Z,97592.97
2022-12-26T03:52:29.074Z,97581.66
2022-12-26T03:57:41.617Z,97589.69
2022-12-26T04:02:48.628Z,97620.28
2022-12-26T04:07:58.486Z,97604.44
2022-12-26T04:13:06.784Z,97591.06
2022-12-26T04:18:16.229Z,97602.56
2022-12-26T04:23:47.645Z,97613.84
2022-12-26T04:28:51.222Z,97621.72
2022-12-26T04:34:02.760Z,97601.81
2022-12-26T04:39:10.575Z,97589.78
2022-12-26T04:44:17.267Z,97594.00
2022-12-26T04:49:21.838Z,97597.72
2022-12-26T04:54:26.044Z,97633.91
2022-12-26T04:59:30.108Z,97664.19
2022-12-26T05:04:33.756Z,97653.31
2022-12-26T05:09:37.317Z,97674.47
2022-12-26T05:14:40.669Z,97705.28
2022-12-26T05:19:44.651Z,97709.75
2022-12-26T05:24:48.580Z,97680.84
2022-12-26T05:29:52.166Z,97648.00
2022-12-26T05:34:55.751Z,97660.50
2022-12-26T05:39:59.214Z,97671.16
2022-12-26T05:45:02.875Z,97668.88
2022-12-26T05:50:07.781Z,97656.97
2022-12-26T05:55:12.424Z,97655.13
2022-12-26T06:00:16.672Z,97643.03
2022-12-26T06:05:20.211Z,97623.09
2022-12-26T06:12:27.854Z,97653.69
2022-12-26T06:17:32.088Z,97660.47
2022-12-26T06:22:37.325Z,97658.59
2022-12-26T06:27:43.676Z,97664.34
2022-12-26T06:32:47.322Z,97665.75
2022-12-26T06:37:51.044Z,97652.38
2022-12-26T06:42:54.456Z,97651.34
2022-12-26T06:47:57.693Z,97652.78
2022-12-26T06:53:02.332Z,97659.53
2022-12-26T06:58:05.949Z,97645.16
2022-12-26T07:03:09.582Z,97637.13
2022-12-26T07:08:13.405Z,97627.88
2022-12-26T07:13:16.934Z,97643.69
2022-12-26T07:18:20.563Z,97649.25
2022-12-26T07:23:24.772Z,97631.56
2022-12-26T07:28:29.311Z,97631.19
2022-12-26T07:33:33.661Z,97656.06
2022-12-26T07:38:37.212Z,97662.44
2022-12-26T07:43:40.610Z,97688.09
2022-12-26T07:48:43.896Z,97714.59
2022-12-26T07:53:47.579Z,97751.97
2022-12-26T07:58:52.251Z,97769.47
2022-12-26T08:03:55.543Z,97783.22
2022-12-26T08:08:59.573Z,97772.34
2022-12-26T08:14:04.863Z,97766.81
2022-12-26T08:19:08.275Z,97737.44
2022-12-26T08:24:11.731Z,97733.38
2022-12-26T08:29:15.515Z,97741.97
2022-12-26T08:34:19.350Z,97735.59
2022-12-26T08:39:22.881Z,97707.03
2022-12-26T08:44:28.470Z,97705.97
2022-12-26T08:49:32.457Z,97701.19
2022-12-26T08:54:36.155Z,97694.16
2022-12-26T08:59:40.061Z,97679.06
2022-12-26T09:04:44.529Z,97675.69
2022-12-26T09:09:48.676Z,97664.34
2022-12-26T09:14:51.992Z,97669.84
2022-12-26T09:19:55.508Z,97661.28
2022-12-26T09:25:00.245Z,97665.28
2022-12-26T09:30:04.106Z,97652.44
2022-12-26T09:35:08.293Z,97659.94
2022-12-26T09:40:24.673Z,97650.88
2022-12-26T09:45:42.856Z,97651.72
2022-12-26T09:50:50.767Z,97656.38
2022-12-26T09:56:02.326Z,97656.59
2022-12-26T10:01:17.591Z,97655.63
2022-12-26T10:06:26.285Z,97655.28
2022-12-26T10:11:41.942Z,97661.28
2022-12-26T10:16:57.501Z,97663.06
2022-12-26T10:22:19.564Z,97654.72
2022-12-26T10:27:27.385Z,97647.31
2022-12-26T10:32:51.444Z,97654.13
2022-12-26T10:37:58.464Z,97635.50
2022-12-26T10:43:34.368Z,97627.81
2022-12-26T10:48:37.739Z,97625.72
2022-12-26T10:53:44.658Z,97622.38
2022-12-26T10:58:59.399Z,97605.88
2022-12-26T11:04:06.458Z,97597.81
2022-12-26T11:09:40.527Z,97609.72
2022-12-26T11:14:45.147Z,97592.38
2022-12-26T11:19:48.805Z,97612.03
2022-12-26T11:25:23.630Z,97597.63
2022-12-26T11:30:33.666Z,97612.22
2022-12-26T11:35:45.635Z,97606.94
2022-12-26T11:40:49.773Z,97604.97
2022-12-26T11:45:55.018Z,97632.28
2022-12-26T11:50:58.510Z,97632.03
2022-12-26T11:56:07.200Z,97621.06
2022-12-26T12:01:16.465Z,97617.09
2022-12-26T12:06:37.840Z,97621.63
2022-12-26T12:11:56.815Z,97603.78
2022-12-26T12:17:25.051Z,97609.84
2022-12-26T12:23:10.463Z,97611.75
2022-12-26T12:28:38.713Z,97636.81
2022-12-26T12:34:12.437Z,97626.84
2022-12-26T12:39:55.121Z,97629.72
2022-12-26T12:45:23.398Z,97717.34
2022-12-26T12:50:42.737Z,97704.28
2022-12-26T12:56:04.082Z,97706.69
2022-12-26T13:01:14.575Z,97700.34
2022-12-26T13:06:36.310Z,97674.66
2022-12-26T13:11:53.931Z,97672.03
2022-12-26T13:17:26.953Z,97677.09
2022-12-26T13:22:38.367Z,97686.34
2022-12-26T13:27:42.736Z,97692.06
2022-12-26T13:32:46.911Z,97694.94
2022-12-26T13:37:58.715Z,97680.13
2022-12-26T13:43:20.713Z,97671.28
2022-12-26T13:48:27.522Z,97670.19
2022-12-26T13:53:36.056Z,97662.94
2022-12-26T13:59:09.577Z,97665.66
2022-12-26T14:04:50.119Z,97686.31
2022-12-26T14:09:53.646Z,97698.31
2022-12-26T14:15:06.900Z,97722.22
2022-12-26T14:20:39.796Z,97724.91
2022-12-26T14:26:25.092Z,97720.41
2022-12-26T14:31:59.434Z,97712.41
2022-12-26T14:37:10.215Z,97723.09
2022-12-26T14:42:24.943Z,97741.34
2022-12-26T14:47:49.381Z,97744.41
2022-12-26T14:52:53.649Z,97766.97
2022-12-26T14:57:57.866Z,97764.34
2022-12-26T15:03:01.277Z,97772.81
2022-12-26T15:08:32.161Z,97759.13
2022-12-26T15:13:58.281Z,97755.19
2022-12-26T15:19:33.925Z,97764.22
2022-12-26T15:25:18.845Z,97768.31
2022-12-26T15:30:45.252Z,97776.31
2022-12-26T15:36:03.909Z,97751.50
2022-12-26T15:41:19.407Z,97767.50
2022-12-26T15:46:33.560Z,97766.28
2022-12-26T15:51:56.258Z,97766.22
2022-12-26T15:56:59.564Z,97770.50
2022-12-26T16:02:03.092Z,97781.78
2022-12-26T16:07:23.318Z,97803.19
2022-12-26T16:12:33.441Z,97814.69
2022-12-26T16:17:38.578Z,97813.28
2022-12-26T16:22:44.098Z,97820.06
2022-12-26T16:27:51.213Z,97835.25
2022-12-26T16:32:55.581Z,97838.72
2022-12-26T16:38:02.902Z,97837.28
2022-12-26T16:43:19.558Z,97842.25
2022-12-26T16:48:27.668Z,97831.75
2022-12-26T16:53:37.394Z,97843.88
2022-12-26T16:58:41.282Z,97846.72
2022-12-26T17:04:00.226Z,97848.56
2022-12-26T17:09:16.900Z,97849.00
2022-12-26T17:14:26.077Z,97857.00
2022-12-26T17:19:32.304Z,97865.84
2022-12-26T17:24:37.466Z,97883.28
2022-12-26T17:29:53.859Z,97893.94
2022-12-26T17:35:06.451Z,97888.56
2022-12-26T17:40:15.919Z,97906.84
2022-12-26T17:45:26.216Z,97914.44
2022-12-26T17:50:37.551Z,97916.28
2022-12-26T17:55:41.925Z,97915.50
2022-12-26T18:00:48.067Z,97914.69
2022-12-26T18:05:53.202Z,97938.94
2022-12-26T18:11:08.600Z,97926.00
2022-12-26T18:16:17.328Z,97927.81
2022-12-26T18:21:20.660Z,97905.44
2022-12-26T18:26:29.743Z,97997.84
2022-12-26T18:31:34.382Z,97963.44
2022-12-26T18:36:39.121Z,97976.91
2022-12-26T18:41:43.406Z,97980.78
2022-12-26T18:46:47.817Z,97990.25
2022-12-26T18:51:51.311Z,97980.56
2022-12-26T18:56:54.713Z,97971.47
2022-12-26T19:02:02.068Z,97982.69
2022-12-26T19:07:05.656Z,97971.78
2022-12-26T19:12:11.045Z,97965.28
2022-12-26T19:17:15.178Z,97982.16
2022-12-26T19:22:18.651Z,97978.91
2022-12-26T19:27:22.119Z,97969.53
2022-12-26T19:32:26.657Z,97953.97
2022-12-26T19:37:30.417Z,97960.59
2022-12-26T19:42:33.871Z,97968.81
2022-12-26T19:47:37.909Z,97975.59
2022-12-26T19:52:41.507Z,97967.19
2022-12-26T19:57:45.423Z,97966.38
2022-12-26T20:02:50.351Z,97977.44
2022-12-26T20:07:58.434Z,97977.84
2022-12-26T20:13:02.208Z,97977.41
2022-12-26T20:18:10.900Z,97983.34
2022-12-26T20:23:18.090Z,97966.13
2022-12-26T20:28:21.816Z,97992.59
2022-12-26T20:33:27.052Z,97985.81
2022-12-26T20:38:31.350Z,97979.69
2022-12-26T20:43:36.039Z,97981.94
2022-12-26T20:48:39.769Z,97996.59
2022-12-26T20:53:43.211Z,97977.72
2022-12-26T20:58:47.302Z,97960.28
2022-12-26T21:03:53.384Z,97974.66
2022-12-26T21:08:57.434Z,97941.81
2022-12-26T21:14:05.231Z,97954.53
2022-12-26T21:19:14.725Z,97951.84
2022-12-26T21:24:23.120Z,97960.28
2022-12-26T21:29:31.220Z,97961.94
2022-12-26T21:34:35.460Z,97965.03
2022-12-26T21:39:44.508Z,97966.25
2022-12-26T21:44:48.266Z,97963.56
2022-12-26T21:49:52.881Z,97958.03
2022-12-26T21:54:56.439Z,97965.41
2022-12-26T22:00:00.111Z,97976.91
2022-12-26T22:05:07.006Z,97984.09
2022-12-26T22:10:11.981Z,97969.13
2022-12-26T22:15:16.789Z,97971.78
2022-12-26T22:20:22.183Z,97985.56
2022-12-26T22:25:25.657Z,97968.72
2022-12-26T22:30:29.172Z,97959.69
2022-12-26T22:35:33.409Z,97976.72
2022-12-26T22:40:37.389Z,97957.22
2022-12-26T22:45:41.385Z,97975.28
2022-12-26T22:50:46.823Z,97974.66
2022-12-26T22:55:52.469Z,97988.03
2022-12-26T23:00:56.577Z,98006.72
2022-12-26T23:06:00.209Z,98009.00
2022-12-26T23:11:04.070Z,98017.19
2022-12-26T23:16:14.297Z,98021.91
2022-12-26T23:21:31.210Z,98023.78
2022-12-26T23:26:35.616Z,98027.06
2022-12-26T23:31:39.151Z,98033.44
2022-12-26T23:36:42.600Z,98032.22
2022-12-26T23:41:46.652Z,98033.03
2022-12-26T23:46:52.309Z,98048.03
2022-12-26T23:51:57.768Z,98023.53
2022-12-26T23:57:01.585Z,98038.13
